createdAt,value
2023-04-09T00:01:09.415Z,83.21
2023-04-09T00:03:38.261Z,82.17
2023-04-09T00:06:08.165Z,82.52
2023-04-09T00:08:35.451Z,82.67
2023-04-09T00:11:02.378Z,81.77
2023-04-09T00:13:38.592Z,81.55
2023-04-09T00:16:09.921Z,81.87
2023-04-09T00:18:39.243Z,81.55
2023-04-09T00:21:16.157Z,81.13
2023-04-09T00:23:43.944Z,80.46
2023-04-09T00:26:10.980Z,80.54
2023-04-09T00:28:37.998Z,80.23
2023-04-09T00:31:05.639Z,79.44
2023-04-09T00:33:32.740Z,79.41
2023-04-09T00:36:02.207Z,79.46
2023-04-09T00:38:31.905Z,79.66
2023-04-09T00:40:58.797Z,79.48
2023-04-09T00:43:25.892Z,78.87
2023-04-09T00:45:53.115Z,78.91
2023-04-09T00:48:20.872Z,79.33
2023-04-09T00:50:50.319Z,78.21
2023-04-09T00:53:18.308Z,78.04
2023-04-09T00:55:50.297Z,78.36
2023-04-09T00:58:20.556Z,78.38
2023-04-09T01:00:47.717Z,78.41
2023-04-09T01:03:17.354Z,78.21
2023-04-09T01:06:07.459Z,78.29
2023-04-09T01:09:25.256Z,78.41
2023-04-09T01:12:53.832Z,78.70
2023-04-09T01:15:32.369Z,78.05
2023-04-09T01:18:25.191Z,77.81
2023-04-09T01:21:14.541Z,77.66
2023-04-09T01:23:54.976Z,77.08
2023-04-09T01:27:01.573Z,79.73
2023-04-09T01:29:33.584Z,80.80
2023-04-09T01:32:06.056Z,82.14
2023-04-09T01:34:36.673Z,82.26
2023-04-09T01:37:04.571Z,82.80
2023-04-09T01:39:32.873Z,82.95
2023-04-09T01:42:02.106Z,83.54
2023-04-09T01:44:29.990Z,82.82
2023-04-09T01:46:59.351Z,82.64
2023-04-09T01:49:27.996Z,82.23
2023-04-09T01:51:55.379Z,83.13
2023-04-09T01:54:22.430Z,83.29
2023-04-09T01:56:49.566Z,84.19
2023-04-09T01:59:16.594Z,85.31
2023-04-09T02:01:54.505Z,85.38
2023-04-09T02:04:33.764Z,85.92
2023-04-09T02:07:10.658Z,86.79
2023-04-09T02:09:40.790Z,86.14
2023-04-09T02:12:16.949Z,86.20
2023-04-09T02:14:47.134Z,86.57
2023-04-09T02:17:17.617Z,86.34
2023-04-09T02:19:47.973Z,86.64
2023-04-09T02:22:16.938Z,86.64
2023-04-09T02:24:46.791Z,87.03
2023-04-09T02:27:13.783Z,86.54
2023-04-09T02:29:43.990Z,87.94
2023-04-09T02:32:10.953Z,87.14
2023-04-09T02:34:38.013Z,87.81
2023-04-09T02:37:05.035Z,88.70
2023-04-09T02:39:32.194Z,87.60
2023-04-09T02:41:59.200Z,87.80
2023-04-09T02:44:28.649Z,88.33
2023-04-09T02:46:56.445Z,88.43
2023-04-09T02:49:23.574Z,87.84
2023-04-09T02:51:56.056Z,88.29
2023-04-09T02:54:25.321Z,87.90
2023-04-09T02:56:52.388Z,87.20
2023-04-09T02:59:19.326Z,87.74
2023-04-09T03:01:49.399Z,88.76
2023-04-09T03:04:21.759Z,88.40
2023-04-09T03:06:51.751Z,87.88
2023-04-09T03:09:18.805Z,87.79
2023-04-09T03:11:45.747Z,88.13
2023-04-09T03:14:12.719Z,88.63
2023-04-09T03:16:41.877Z,88.64
2023-04-09T03:19:08.851Z,89.36
2023-04-09T03:21:35.903Z,88.76
2023-04-09T03:24:05.909Z,88.58
2023-04-09T03:26:36.486Z,88.51
2023-04-09T03:29:04.972Z,89.36
2023-04-09T03:31:34.654Z,88.51
2023-04-09T03:34:01.593Z,88.94
2023-04-09T03:36:31.231Z,88.91
2023-04-09T03:38:58.179Z,88.94
2023-04-09T03:41:26.657Z,89.93
2023-04-09T03:43:56.087Z,88.87
2023-04-09T03:46:25.446Z,89.60
2023-04-09T03:48:57.070Z,90.11
2023-04-09T03:51:24.171Z,89.41
2023-04-09T03:53:51.456Z,89.65
2023-04-09T03:56:18.427Z,89.96
2023-04-09T03:58:51.011Z,89.15
2023-04-09T04:01:18.190Z,89.37
2023-04-09T04:03:48.307Z,89.72
2023-04-09T04:06:17.532Z,90.21
2023-04-09T04:08:46.703Z,90.87
2023-04-09T04:11:16.168Z,89.61
2023-04-09T04:13:45.357Z,89.00
2023-04-09T04:16:14.832Z,88.69
2023-04-09T04:18:41.779Z,89.28
2023-04-09T04:21:14.620Z,88.87
2023-04-09T04:23:41.802Z,88.90
2023-04-09T04:26:10.947Z,88.09
2023-04-09T04:28:39.415Z,87.20
2023-04-09T04:31:12.917Z,87.89
2023-04-09T04:33:42.106Z,88.55
2023-04-09T04:36:11.845Z,88.46
2023-04-09T04:38:41.896Z,87.15
2023-04-09T04:41:11.271Z,87.56
2023-04-09T04:43:41.504Z,89.10
2023-04-09T04:46:08.560Z,89.66
2023-04-09T04:48:37.994Z,90.09
2023-04-09T04:51:05.150Z,89.80
2023-04-09T04:53:35.168Z,88.46
2023-04-09T04:56:04.369Z,89.60
2023-04-09T04:58:31.485Z,89.23
2023-04-09T05:00:58.528Z,89.25
2023-04-09T05:03:27.472Z,88.84
2023-04-09T05:05:54.753Z,89.66
2023-04-09T05:08:28.903Z,89.62
2023-04-09T05:10:56.298Z,88.81
2023-04-09T05:13:24.204Z,88.00
2023-04-09T05:15:54.214Z,87.92
2023-04-09T05:18:21.626Z,88.58
2023-04-09T05:20:48.543Z,88.78
2023-04-09T05:23:18.508Z,88.42
2023-04-09T05:25:45.432Z,87.96
2023-04-09T05:28:12.387Z,89.27
2023-04-09T05:30:41.917Z,88.74
2023-04-09T05:33:11.230Z,88.65
2023-04-09T05:35:41.518Z,87.97
2023-04-09T05:38:11.139Z,86.56
2023-04-09T05:40:38.108Z,84.98
2023-04-09T05:43:05.581Z,84.92
2023-04-09T05:45:32.517Z,86.29
2023-04-09T05:47:59.598Z,88.75
2023-04-09T05:50:29.222Z,88.85
2023-04-09T05:52:56.183Z,88.13
2023-04-09T05:55:23.140Z,87.38
2023-04-09T05:57:55.011Z,87.74
2023-04-09T06:00:27.542Z,89.29
2023-04-09T06:02:54.591Z,89.74
2023-04-09T06:05:23.667Z,90.11
2023-04-09T06:07:50.617Z,90.24
2023-04-09T06:10:19.778Z,88.99
2023-04-09T06:12:49.132Z,86.87
2023-04-09T06:15:17.054Z,86.19
2023-04-09T06:17:44.140Z,84.87
2023-04-09T06:20:11.758Z,84.55
2023-04-09T06:22:38.937Z,83.59
2023-04-09T06:25:07.191Z,82.36
2023-04-09T06:27:34.378Z,82.02
2023-04-09T06:30:03.853Z,82.37
2023-04-09T06:32:33.535Z,82.66
2023-04-09T06:35:02.636Z,83.44
2023-04-09T06:37:31.912Z,83.43
2023-04-09T06:40:01.394Z,83.41
2023-04-09T06:42:28.913Z,81.71
2023-04-09T06:44:56.015Z,81.43
2023-04-09T06:47:23.107Z,81.72
2023-04-09T06:49:50.038Z,84.03
2023-04-09T06:52:16.984Z,85.54
2023-04-09T06:54:46.613Z,86.85
2023-04-09T06:57:15.769Z,86.88
2023-04-09T06:59:47.449Z,87.92
2023-04-09T07:02:14.501Z,87.48
2023-04-09T07:04:41.893Z,88.52
2023-04-09T07:07:11.017Z,86.15
2023-04-09T07:09:40.445Z,86.07
2023-04-09T07:12:07.393Z,83.72
2023-04-09T07:14:34.326Z,82.98
2023-04-09T07:17:03.260Z,82.81
2023-04-09T07:19:30.930Z,82.02
2023-04-09T07:22:00.310Z,81.76
2023-04-09T07:24:30.073Z,81.97
2023-04-09T07:27:06.362Z,80.80
2023-04-09T07:29:33.291Z,80.32
2023-04-09T07:32:01.450Z,78.95
2023-04-09T07:34:31.100Z,78.64
2023-04-09T07:37:01.004Z,79.02
2023-04-09T07:39:27.944Z,79.60
2023-04-09T07:41:54.866Z,77.44
2023-04-09T07:44:24.798Z,76.77
2023-04-09T07:46:56.783Z,76.81
2023-04-09T07:49:23.816Z,78.95
2023-04-09T07:51:51.254Z,77.12
2023-04-09T07:54:23.192Z,74.68
2023-04-09T07:56:52.186Z,71.73
2023-04-09T07:59:21.788Z,71.29
2023-04-09T08:01:48.843Z,69.90
2023-04-09T08:04:18.456Z,68.88
2023-04-09T08:06:51.134Z,66.66
2023-04-09T08:09:21.317Z,67.74
2023-04-09T08:11:51.474Z,68.14
2023-04-09T08:14:18.931Z,67.50
2023-04-09T08:16:52.602Z,66.61
2023-04-09T08:19:21.855Z,64.53
2023-04-09T08:21:49.582Z,62.89
2023-04-09T08:24:19.140Z,62.81
2023-04-09T08:26:49.176Z,64.95
2023-04-09T08:29:16.269Z,62.63
2023-04-09T08:31:43.275Z,62.41
2023-04-09T08:34:10.276Z,63.58
2023-04-09T08:36:40.205Z,62.99
2023-04-09T08:39:07.069Z,61.57
2023-04-09T08:41:36.084Z,63.33
2023-04-09T08:44:05.476Z,63.84
2023-04-09T08:46:34.951Z,62.29
2023-04-09T08:49:04.628Z,62.76
2023-04-09T08:51:34.571Z,64.41
2023-04-09T08:54:06.558Z,65.23
2023-04-09T08:56:33.772Z,66.29
2023-04-09T08:59:02.952Z,65.25
2023-04-09T09:01:31.779Z,63.52
2023-04-09T09:04:11.526Z,63.82
2023-04-09T09:06:41.043Z,64.53
2023-04-09T09:09:11.842Z,63.89
2023-04-09T09:11:44.220Z,63.98
2023-04-09T09:14:13.927Z,63.07
2023-04-09T09:16:44.631Z,62.89
2023-04-09T09:19:31.459Z,63.43
2023-04-09T09:22:08.005Z,62.53
2023-04-09T09:24:51.267Z,61.55
2023-04-09T09:27:36.933Z,61.98
2023-04-09T09:30:08.658Z,61.17
2023-04-09T09:32:36.398Z,59.18
2023-04-09T09:35:09.324Z,61.08
2023-04-09T09:37:38.360Z,59.50
2023-04-09T09:40:08.924Z,58.26
2023-04-09T09:42:35.929Z,57.48
2023-04-09T09:45:17.761Z,56.95
2023-04-09T09:47:46.703Z,55.89
2023-04-09T09:50:16.161Z,56.11
2023-04-09T09:52:45.916Z,57.31
2023-04-09T09:55:19.765Z,57.36
2023-04-09T09:57:54.353Z,55.74
2023-04-09T10:00:25.545Z,53.61
2023-04-09T10:03:07.268Z,53.94
2023-04-09T10:05:36.697Z,54.37
2023-04-09T10:08:08.839Z,46.48
2023-04-09T10:10:38.477Z,39.95
2023-04-09T10:13:10.955Z,35.11
2023-04-09T10:15:38.618Z,31.09
2023-04-09T10:18:05.714Z,29.24
2023-04-09T10:21:08.068Z,31.00
2023-04-09T10:23:42.837Z,31.16
2023-04-09T10:26:10.341Z,28.81
2023-04-09T10:28:41.140Z,27.89
2023-04-09T10:31:08.618Z,25.74
2023-04-09T10:33:38.782Z,27.01
2023-04-09T10:36:10.970Z,25.77
2023-04-09T10:38:48.730Z,24.65
2023-04-09T10:41:22.786Z,24.81
2023-04-09T10:43:50.291Z,23.99
2023-04-09T10:46:37.087Z,23.23
2023-04-09T10:49:19.911Z,23.04
2023-04-09T10:52:12.583Z,22.54
2023-04-09T10:54:46.463Z,23.10
2023-04-09T10:57:22.856Z,22.32
2023-04-09T10:59:51.979Z,21.86
2023-04-09T11:02:54.835Z,23.10
2023-04-09T11:05:40.013Z,23.82
2023-04-09T11:08:14.421Z,22.71
2023-04-09T11:10:49.115Z,22.82
2023-04-09T11:13:20.033Z,23.81
2023-04-09T11:15:47.141Z,25.29
2023-04-09T11:18:23.224Z,26.51
2023-04-09T11:20:50.530Z,26.21
2023-04-09T11:23:18.698Z,24.75
2023-04-09T11:25:51.092Z,23.65
2023-04-09T11:28:21.586Z,24.17
2023-04-09T11:30:51.829Z,22.35
2023-04-09T11:33:20.268Z,23.90
2023-04-09T11:35:48.831Z,23.63
2023-04-09T11:38:18.334Z,23.60
2023-04-09T11:40:48.669Z,23.29
2023-04-09T11:43:16.900Z,23.99
2023-04-09T11:45:49.571Z,23.82
2023-04-09T11:48:21.724Z,24.50
2023-04-09T11:50:53.014Z,23.93
2023-04-09T11:53:25.293Z,23.16
2023-04-09T11:55:55.182Z,22.67
2023-04-09T11:58:28.560Z,21.18
2023-04-09T12:01:00.981Z,21.00
2023-04-09T12:03:34.377Z,21.65
2023-04-09T12:06:06.154Z,21.76
2023-04-09T12:08:37.265Z,21.34
2023-04-09T12:11:18.089Z,21.35
2023-04-09T12:13:46.927Z,22.69
2023-04-09T12:16:20.764Z,22.03
2023-04-09T12:18:50.874Z,22.18
2023-04-09T12:21:20.414Z,21.99
2023-04-09T12:23:50.439Z,22.55
2023-04-09T12:26:19.670Z,22.32
2023-04-09T12:28:48.982Z,22.22
2023-04-09T12:31:18.343Z,21.97
2023-04-09T12:33:45.545Z,22.73
2023-04-09T12:36:15.105Z,25.35
2023-04-09T12:38:42.184Z,27.54
2023-04-09T12:41:09.669Z,27.28
2023-04-09T12:43:37.279Z,26.33
2023-04-09T12:46:07.357Z,26.79
2023-04-09T12:48:35.116Z,27.94
2023-04-09T12:51:07.275Z,28.76
2023-04-09T12:53:34.433Z,29.50
2023-04-09T12:56:01.793Z,29.24
2023-04-09T12:58:29.430Z,27.35
2023-04-09T13:00:57.159Z,26.26
2023-04-09T13:03:27.837Z,26.76
2023-04-09T13:05:57.803Z,27.14
2023-04-09T13:08:25.459Z,26.07
2023-04-09T13:10:52.871Z,25.16
2023-04-09T13:13:20.117Z,24.51
2023-04-09T13:15:47.268Z,25.57
2023-04-09T13:18:17.493Z,26.76
2023-04-09T13:20:44.503Z,27.96
2023-04-09T13:23:11.694Z,28.84
2023-04-09T13:25:38.959Z,28.54
2023-04-09T13:28:08.150Z,29.44
2023-04-09T13:30:35.640Z,32.31
2023-04-09T13:33:04.769Z,31.84
2023-04-09T13:35:35.040Z,32.84
2023-04-09T13:38:04.441Z,32.84
2023-04-09T13:40:34.085Z,32.79
2023-04-09T13:43:01.479Z,32.36
2023-04-09T13:45:32.941Z,32.52
2023-04-09T13:48:00.186Z,32.86
2023-04-09T13:50:27.227Z,32.33
2023-04-09T13:52:54.504Z,30.99
2023-04-09T13:55:24.141Z,33.49
2023-04-09T13:57:51.207Z,31.15
2023-04-09T14:00:22.884Z,33.51
2023-04-09T14:02:49.949Z,30.08
2023-04-09T14:05:17.714Z,30.88
2023-04-09T14:07:44.794Z,31.83
2023-04-09T14:10:12.580Z,31.81
2023-04-09T14:12:39.556Z,31.05
2023-04-09T14:15:10.269Z,30.24
2023-04-09T14:17:37.282Z,31.15
2023-04-09T14:20:05.168Z,32.95
2023-04-09T14:22:35.079Z,34.35
2023-04-09T14:25:04.587Z,34.75
2023-04-09T14:27:34.473Z,34.04
2023-04-09T14:30:01.651Z,35.07
2023-04-09T14:32:28.852Z,35.44
2023-04-09T14:34:58.125Z,35.05
2023-04-09T14:37:27.901Z,34.96
2023-04-09T14:39:57.648Z,34.92
2023-04-09T14:42:24.722Z,34.27
2023-04-09T14:44:51.782Z,33.81
2023-04-09T14:47:18.904Z,32.97
2023-04-09T14:49:48.398Z,33.55
2023-04-09T14:52:15.491Z,32.52
2023-04-09T14:54:42.806Z,31.85
2023-04-09T14:57:09.900Z,33.32
2023-04-09T14:59:37.059Z,34.92
2023-04-09T15:02:08.833Z,35.63
2023-04-09T15:04:38.134Z,36.67
2023-04-09T15:07:06.816Z,37.75
2023-04-09T15:09:33.905Z,36.78
2023-04-09T15:12:01.536Z,41.87
2023-04-09T15:14:34.105Z,36.96
2023-04-09T15:17:01.063Z,35.04
2023-04-09T15:19:32.522Z,35.42
2023-04-09T15:21:59.617Z,35.58
2023-04-09T15:24:28.519Z,34.89
2023-04-09T15:26:57.074Z,34.58
2023-04-09T15:29:24.068Z,35.58
2023-04-09T15:31:53.359Z,36.87
2023-04-09T15:34:20.539Z,36.97
2023-04-09T15:36:47.783Z,36.67
2023-04-09T15:39:15.165Z,36.75
2023-04-09T15:41:42.266Z,37.06
2023-04-09T15:44:10.789Z,38.39
2023-04-09T15:46:43.031Z,37.95
2023-04-09T15:49:12.540Z,38.38
2023-04-09T15:51:39.568Z,36.30
2023-04-09T15:54:06.798Z,36.34
2023-04-09T15:56:36.354Z,36.63
2023-04-09T15:59:05.412Z,36.67
2023-04-09T16:01:33.184Z,37.06
2023-04-09T16:04:00.341Z,37.72
2023-04-09T16:06:27.559Z,37.81
2023-04-09T16:08:54.832Z,37.49
2023-04-09T16:11:22.320Z,37.63
2023-04-09T16:13:49.396Z,36.56
2023-04-09T16:16:19.388Z,37.31
2023-04-09T16:18:46.436Z,37.69
2023-04-09T16:21:13.776Z,37.38
2023-04-09T16:23:41.306Z,38.51
2023-04-09T16:26:11.284Z,38.75
2023-04-09T16:28:38.281Z,38.92
2023-04-09T16:31:07.999Z,40.31
2023-04-09T16:33:35.208Z,40.98
2023-04-09T16:36:02.665Z,40.92
2023-04-09T16:38:32.115Z,40.99
2023-04-09T16:41:02.133Z,42.10
2023-04-09T16:43:30.546Z,42.31
2023-04-09T16:45:57.560Z,43.10
2023-04-09T16:48:27.007Z,44.30
2023-04-09T16:50:56.591Z,45.10
2023-04-09T16:53:23.618Z,44.95
2023-04-09T16:55:50.763Z,45.52
2023-04-09T16:58:17.942Z,45.86
2023-04-09T17:00:51.856Z,45.93
2023-04-09T17:03:19.485Z,45.75
2023-04-09T17:05:49.635Z,45.95
2023-04-09T17:08:17.443Z,46.05
2023-04-09T17:10:44.949Z,46.09
2023-04-09T17:13:12.262Z,46.38
2023-04-09T17:15:39.588Z,47.07
2023-04-09T17:18:09.000Z,47.10
2023-04-09T17:20:35.958Z,46.96
2023-04-09T17:23:03.125Z,46.59
2023-04-09T17:25:30.266Z,46.17
2023-04-09T17:27:57.547Z,46.11
2023-04-09T17:30:24.573Z,46.13
2023-04-09T17:32:52.237Z,46.27
2023-04-09T17:35:19.280Z,46.36
2023-04-09T17:37:46.792Z,46.62
2023-04-09T17:40:18.649Z,46.91
2023-04-09T17:42:49.192Z,47.74
2023-04-09T17:45:18.705Z,48.51
2023-04-09T17:47:48.392Z,48.22
2023-04-09T17:50:15.495Z,47.64
2023-04-09T17:52:44.828Z,48.13
2023-04-09T17:55:15.583Z,48.40
2023-04-09T17:57:43.019Z,48.68
2023-04-09T18:00:16.287Z,48.98
2023-04-09T18:02:47.170Z,48.32
2023-04-09T18:05:14.643Z,48.72
2023-04-09T18:07:41.714Z,48.38
2023-04-09T18:10:09.139Z,48.65
2023-04-09T18:12:36.351Z,49.33
2023-04-09T18:15:04.311Z,49.89
2023-04-09T18:17:33.842Z,49.68
2023-04-09T18:20:01.398Z,49.81
2023-04-09T18:22:28.579Z,50.30
2023-04-09T18:24:56.091Z,50.03
2023-04-09T18:27:25.701Z,50.71
2023-04-09T18:29:52.711Z,50.94
2023-04-09T18:32:20.194Z,50.34
2023-04-09T18:34:50.327Z,50.77
2023-04-09T18:37:20.549Z,50.40
2023-04-09T18:39:47.975Z,50.81
2023-04-09T18:42:17.540Z,50.83
2023-04-09T18:44:47.298Z,51.13
2023-04-09T18:47:14.246Z,52.02
2023-04-09T18:49:41.606Z,51.67
2023-04-09T18:52:10.271Z,51.58
2023-04-09T18:54:38.923Z,52.08
2023-04-09T18:57:06.582Z,51.60
2023-04-09T18:59:35.200Z,52.26
2023-04-09T19:02:08.812Z,52.46
2023-04-09T19:04:39.705Z,52.64
2023-04-09T19:07:10.250Z,52.60
2023-04-09T19:09:41.960Z,52.81
2023-04-09T19:12:11.568Z,53.33
2023-04-09T19:14:40.295Z,53.29
2023-04-09T19:17:08.000Z,53.28
2023-04-09T19:19:35.116Z,53.73
2023-04-09T19:22:09.155Z,54.98
2023-04-09T19:24:38.409Z,55.59
2023-04-09T19:27:10.091Z,55.62
2023-04-09T19:29:41.562Z,55.67
2023-04-09T19:32:13.264Z,54.98
2023-04-09T19:34:40.674Z,56.25
2023-04-09T19:37:11.542Z,56.37
2023-04-09T19:39:43.280Z,56.04
2023-04-09T19:42:10.295Z,56.99
2023-04-09T19:44:39.434Z,56.08
2023-04-09T19:47:06.445Z,57.28
2023-04-09T19:49:35.751Z,56.95
2023-04-09T19:52:06.827Z,56.71
2023-04-09T19:54:34.860Z,56.89
2023-04-09T19:57:03.787Z,57.17
2023-04-09T19:59:36.297Z,57.91
2023-04-09T20:02:03.621Z,57.61
2023-04-09T20:04:30.987Z,57.78
2023-04-09T20:06:58.027Z,58.63
2023-04-09T20:09:27.657Z,58.66
2023-04-09T20:11:58.424Z,58.88
2023-04-09T20:14:27.738Z,59.81
2023-04-09T20:16:54.954Z,61.20
2023-04-09T20:19:24.388Z,60.44
2023-04-09T20:21:51.317Z,60.67
2023-04-09T20:24:18.249Z,60.40
2023-04-09T20:26:50.911Z,61.10
2023-04-09T20:29:21.008Z,60.01
2023-04-09T20:31:48.109Z,61.50
2023-04-09T20:34:15.345Z,62.90
2023-04-09T20:36:44.510Z,64.50
2023-04-09T20:39:14.015Z,64.22
2023-04-09T20:41:40.994Z,64.04
2023-04-09T20:44:10.272Z,65.50
2023-04-09T20:46:37.384Z,65.38
2023-04-09T20:49:08.994Z,64.75
2023-04-09T20:51:38.442Z,66.16
2023-04-09T20:54:05.436Z,66.56
2023-04-09T20:56:32.709Z,66.24
2023-04-09T20:58:59.703Z,66.70
2023-04-09T21:01:29.617Z,66.46
2023-04-09T21:03:56.863Z,67.93
2023-04-09T21:06:24.256Z,68.58
2023-04-09T21:08:51.695Z,70.62
2023-04-09T21:11:18.870Z,70.77
2023-04-09T21:13:54.379Z,70.90
2023-04-09T21:16:22.826Z,71.87
2023-04-09T21:18:50.473Z,72.69
2023-04-09T21:21:17.700Z,72.61
2023-04-09T21:23:44.727Z,73.51
2023-04-09T21:26:11.963Z,73.00
2023-04-09T21:28:41.486Z,72.78
2023-04-09T21:31:15.963Z,72.47
2023-04-09T21:33:45.380Z,72.34
2023-04-09T21:36:14.739Z,75.07
2023-04-09T21:38:44.200Z,76.38
2023-04-09T21:41:11.133Z,77.21
2023-04-09T21:43:40.677Z,77.11
2023-04-09T21:46:10.125Z,77.02
2023-04-09T21:48:41.043Z,78.20
2023-04-09T21:51:14.766Z,77.41
2023-04-09T21:53:43.840Z,77.35
2023-04-09T21:56:10.835Z,77.26
2023-04-09T21:58:40.246Z,77.59
2023-04-09T22:01:15.725Z,78.23
2023-04-09T22:03:49.908Z,78.15
2023-04-09T22:06:21.590Z,78.46
2023-04-09T22:08:56.161Z,79.25
2023-04-09T22:11:29.723Z,79.34
2023-04-09T22:13:57.710Z,79.03
2023-04-09T22:16:27.527Z,79.14
2023-04-09T22:18:55.289Z,80.19
2023-04-09T22:21:22.512Z,81.27
2023-04-09T22:23:52.035Z,82.04
2023-04-09T22:26:21.994Z,82.48
2023-04-09T22:28:51.437Z,82.54
2023-04-09T22:31:23.114Z,82.14
2023-04-09T22:33:50.614Z,81.84
2023-04-09T22:36:17.661Z,83.18
2023-04-09T22:38:46.974Z,82.58
2023-04-09T22:41:15.940Z,81.93
2023-04-09T22:43:42.939Z,80.90
2023-04-09T22:46:13.016Z,81.92
2023-04-09T22:48:44.941Z,82.07
2023-04-09T22:51:15.464Z,81.97
2023-04-09T22:53:46.828Z,81.02
2023-04-09T22:56:16.170Z,80.43
2023-04-09T22:58:43.214Z,81.55
2023-04-09T23:01:10.207Z,81.57
2023-04-09T23:03:39.770Z,81.73
2023-04-09T23:06:06.911Z,82.01
2023-04-09T23:08:33.870Z,81.05
2023-04-09T23:11:01.215Z,80.97
2023-04-09T23:13:34.830Z,81.45
2023-04-09T23:16:08.459Z,82.03
2023-04-09T23:18:36.319Z,82.02
2023-04-09T23:21:08.135Z,83.01
2023-04-09T23:23:39.086Z,82.12
2023-04-09T23:26:10.976Z,84.36
2023-04-09T23:28:37.951Z,83.28
2023-04-09T23:31:07.513Z,83.68
2023-04-09T23:33:39.952Z,82.86
2023-04-09T23:36:07.324Z,82.38
2023-04-09T23:38:34.309Z,82.35
2023-04-09T23:41:03.427Z,83.46
2023-04-09T23:43:30.610Z,83.64
2023-04-09T23:45:57.605Z,84.03
2023-04-09T23:48:26.856Z,83.95
2023-04-09T23:50:56.819Z,84.25
2023-04-09T23:53:23.922Z,84.80
2023-04-09T23:55:51.049Z,82.85
2023-04-09T23:58:18.755Z,82.85
